YBCG/OOL METAR and TAF weather

Enter ICAO airport designator
Station Type Date Time Source
YBCG METAR 2019/05/25 15:00 UTC NOAA

YBCG 251500Z AUTO 23005KT 9999 // NCD 15/15 Q1018


Station Type Date Time Source
YBCG Decoded METAR 2019/05/25 15:00 UTC NOAA

Coolangatta Airport Aws, Australia (YBCG) 28-10S 153-30E 6M
May 25, 2019 - 11:00 AM EDT / 2019.05.25 1500 UTC
Wind: from the SW (230 degrees) at 6 MPH (5 KT):0
Visibility: greater than 7 mile(s):0
Temperature: 59 F (15 C)
Dew Point: 59 F (15 C)
Relative Humidity: 100%
Pressure (altimeter): 30.06 in. Hg (1018 hPa)
ob: YBCG 251500Z AUTO 23005KT 9999 // NCD 15/15 Q1018
cycle: 15

Station Type Date Time Source
YBCG TAF 2019/05/25 12:33 UTC NOAA

TAF YBCG 251117Z 2512/2612 27005KT CAVOK
FM260300 01010KT CAVOK
FM260900 30005KT 9999 FEW050

Example: see airport list